Time;durP1;ratioP1;P1;durP2;ratioP2;P2;SDS_P1;SDS_P2;PMS_P1;PMS_P2;Temp;Humidity;BMP_temperature;BMP_pressure;BME280_temperature;BME280_humidity;BME280_pressure;Samples;Min_cycle;Max_cycle;Signal;HPM_P1;HPM_P2
2023/09/03 00:00:56;;;;;;;1.38;1.25;;;20.00;76.00;;;;;;5018121;28;20065;-72
2023/09/03 00:03:22;;;;;;;1.63;1.33;;;20.00;76.00;;;;;;5020001;28;20087;-72
2023/09/03 00:05:49;;;;;;;1.75;1.35;;;20.00;76.00;;;;;;5004596;28;20048;-72
2023/09/03 00:08:15;;;;;;;1.50;1.08;;;20.00;75.90;;;;;;5017756;28;20120;-72
2023/09/03 00:10:40;;;;;;;1.70;1.40;;;20.00;75.80;;;;;;5006771;28;20049;-72
2023/09/03 00:13:06;;;;;;;2.08;1.50;;;20.00;75.80;;;;;;5016389;28;20148;-72
2023/09/03 00:15:31;;;;;;;1.30;1.20;;;20.00;75.80;;;;;;5000885;28;20049;-72
2023/09/03 00:17:57;;;;;;;1.67;1.23;;;20.00;75.90;;;;;;5021211;28;20037;-72
2023/09/03 00:20:23;;;;;;;1.00;0.90;;;20.00;75.80;;;;;;5018080;28;20032;-71
2023/09/03 00:22:48;;;;;;;1.20;1.10;;;20.00;75.80;;;;;;5021772;28;20037;-72
2023/09/03 00:25:14;;;;;;;1.30;1.20;;;20.00;75.70;;;;;;5019193;28;20017;-69
2023/09/03 00:27:39;;;;;;;1.48;1.30;;;20.00;75.90;;;;;;5021301;28;20037;-76
2023/09/03 00:30:05;;;;;;;1.45;1.10;;;20.00;75.70;;;;;;5020470;28;20092;-69
2023/09/03 00:32:31;;;;;;;1.23;1.13;;;20.00;75.80;;;;;;5007490;28;20039;-72
2023/09/03 00:34:56;;;;;;;1.05;0.95;;;20.00;75.80;;;;;;4999631;28;20037;-73
2023/09/03 00:37:22;;;;;;;1.05;0.90;;;19.90;75.70;;;;;;4999972;28;20045;-72
2023/09/03 00:39:47;;;;;;;1.38;1.00;;;20.00;75.70;;;;;;5013468;28;20947;-71
2023/09/03 00:42:13;;;;;;;1.33;0.85;;;20.00;75.90;;;;;;5018335;28;20029;-72
2023/09/03 00:44:38;;;;;;;1.17;1.08;;;20.00;75.80;;;;;;4999444;28;20038;-72
2023/09/03 00:47:04;;;;;;;0.90;0.90;;;20.00;75.80;;;;;;5001767;28;20468;-72
2023/09/03 00:49:30;;;;;;;1.58;1.20;;;20.00;75.80;;;;;;5020903;28;20488;-72
2023/09/03 00:51:56;;;;;;;1.63;1.10;;;20.00;75.90;;;;;;5005174;28;20116;-72
2023/09/03 00:54:23;;;;;;;1.23;1.13;;;20.00;75.90;;;;;;5021148;28;20068;-72
2023/09/03 00:56:53;;;;;;;1.85;1.02;;;20.00;76.00;;;;;;5020546;28;20041;-72
2023/09/03 00:59:21;;;;;;;1.83;1.30;;;20.00;75.80;;;;;;5018925;28;20508;-68
2023/09/03 01:01:49;;;;;;;1.15;1.08;;;20.00;75.90;;;;;;5016110;28;20037;-72
2023/09/03 01:04:14;;;;;;;1.80;0.93;;;20.00;76.50;;;;;;5020574;28;20416;-71
2023/09/03 01:06:41;;;;;;;0.98;0.70;;;19.90;75.80;;;;;;5022597;28;20029;-70
2023/09/03 01:09:06;;;;;;;1.17;1.02;;;20.00;75.90;;;;;;5003553;28;20445;-71
2023/09/03 01:12:03;;;;;;;1.73;0.90;;;20.00;75.80;;;;;;5019668;28;20167;-69
2023/09/03 01:14:44;;;;;;;1.33;1.23;;;20.00;75.90;;;;;;4998691;28;20034;-70
2023/09/03 01:17:35;;;;;;;1.13;0.93;;;20.00;75.80;;;;;;5017175;28;20061;-71
2023/09/03 01:20:16;;;;;;;0.80;0.80;;;20.00;75.70;;;;;;5003868;28;20029;-71
2023/09/03 01:23:03;;;;;;;1.30;1.20;;;20.00;75.80;;;;;;5002886;28;20314;-70
2023/09/03 01:25:52;;;;;;;1.25;1.15;;;20.00;75.70;;;;;;5020192;28;20496;-69
2023/09/03 01:28:38;;;;;;;1.17;1.00;;;20.00;75.80;;;;;;5016279;28;20456;-69
2023/09/03 01:31:08;;;;;;;1.92;0.90;;;19.90;75.60;;;;;;5022126;28;20029;-71
2023/09/03 01:33:36;;;;;;;1.67;0.95;;;19.90;75.70;;;;;;5020311;28;20038;-69
2023/09/03 01:36:06;;;;;;;1.45;1.00;;;19.90;75.60;;;;;;5013397;28;20072;-72
2023/09/03 01:38:32;;;;;;;1.42;0.90;;;19.90;75.70;;;;;;5003794;28;20034;-69
2023/09/03 01:40:59;;;;;;;2.63;1.05;;;19.90;75.70;;;;;;4999818;28;20065;-72
2023/09/03 01:43:28;;;;;;;1.40;0.85;;;19.90;75.70;;;;;;5005715;28;20025;-71
2023/09/03 01:46:10;;;;;;;1.48;1.10;;;20.00;75.80;;;;;;5006070;28;20036;-72
2023/09/03 01:49:21;;;;;;;0.90;0.75;;;19.90;75.60;;;;;;4999325;28;20038;-71
2023/09/03 01:52:00;;;;;;;1.02;0.90;;;19.90;75.70;;;;;;5020116;28;20144;-72
2023/09/03 01:54:29;;;;;;;0.98;0.88;;;19.90;75.80;;;;;;5024210;28;20037;-71
2023/09/03 01:57:25;;;;;;;2.05;1.00;;;20.00;75.80;;;;;;5024990;28;20061;-72
2023/09/03 01:59:56;;;;;;;0.82;0.75;;;19.90;75.80;;;;;;5005336;28;20401;-71
2023/09/03 02:02:24;;;;;;;1.10;1.00;;;19.90;75.80;;;;;;5022793;28;20036;-71
2023/09/03 02:04:50;;;;;;;1.70;0.90;;;19.90;75.70;;;;;;5005679;28;20030;-69
2023/09/03 02:07:16;;;;;;;1.30;1.00;;;19.90;75.70;;;;;;5024368;28;20493;-71
2023/09/03 02:09:42;;;;;;;1.20;1.13;;;19.90;75.80;;;;;;5025674;28;20042;-71
2023/09/03 02:12:09;;;;;;;1.13;0.85;;;19.90;75.60;;;;;;5007328;28;20026;-70
2023/09/03 02:14:34;;;;;;;0.80;0.80;;;19.90;75.80;;;;;;5006073;28;20037;-71
2023/09/03 02:17:00;;;;;;;2.38;0.90;;;19.90;75.60;;;;;;5020847;28;20462;-71
2023/09/03 02:19:25;;;;;;;0.70;0.70;;;19.90;75.80;;;;;;5018321;28;20034;-71
2023/09/03 02:21:51;;;;;;;1.80;0.80;;;19.90;75.80;;;;;;5017643;28;20401;-67
2023/09/03 02:24:17;;;;;;;1.83;1.08;;;19.90;75.70;;;;;;5016399;28;20033;-71
2023/09/03 02:26:44;;;;;;;2.20;0.90;;;19.90;75.60;;;;;;5016321;28;20488;-71
2023/09/03 02:29:10;;;;;;;1.15;0.85;;;19.90;75.50;;;;;;5024959;28;20033;-71
2023/09/03 02:31:36;;;;;;;0.90;0.63;;;19.90;75.70;;;;;;5007334;28;20041;-71
2023/09/03 02:34:05;;;;;;;0.95;0.88;;;19.90;75.60;;;;;;5002976;28;20038;-71
2023/09/03 02:36:33;;;;;;;1.00;0.88;;;19.90;75.60;;;;;;5019264;28;20163;-71
2023/09/03 02:39:04;;;;;;;0.90;0.80;;;19.90;75.60;;;;;;4998095;28;20080;-69
2023/09/03 02:41:30;;;;;;;1.83;0.90;;;19.90;75.70;;;;;;5025627;28;20044;-71
2023/09/03 02:43:57;;;;;;;1.55;0.77;;;19.90;75.70;;;;;;5022305;28;20397;-71
2023/09/03 02:46:23;;;;;;;1.10;0.90;;;19.90;75.50;;;;;;5012248;28;20497;-70
2023/09/03 02:48:49;;;;;;;2.50;0.98;;;19.90;75.70;;;;;;4993666;28;20172;-71
2023/09/03 02:51:15;;;;;;;0.88;0.77;;;19.90;75.50;;;;;;5012893;28;20113;-71
2023/09/03 02:53:42;;;;;;;1.15;0.90;;;19.90;75.50;;;;;;5006278;28;20037;-71
2023/09/03 02:56:08;;;;;;;1.58;1.15;;;19.90;75.60;;;;;;5012297;28;20036;-71
2023/09/03 02:58:33;;;;;;;0.80;0.80;;;19.90;75.50;;;;;;5025040;28;20034;-71
2023/09/03 03:01:11;;;;;;;0.77;0.70;;;19.90;75.50;;;;;;5026932;28;20095;-69
2023/09/03 03:03:36;;;;;;;0.80;0.70;;;19.90;75.60;;;;;;5022722;28;20034;-71
2023/09/03 03:06:02;;;;;;;0.93;0.85;;;19.90;75.60;;;;;;5013639;28;20151;-72
2023/09/03 03:08:27;;;;;;;0.95;0.90;;;19.90;75.80;;;;;;5018946;28;21298;-71
2023/09/03 03:11:03;;;;;;;0.73;0.70;;;19.90;75.70;;;;;;5014428;28;20030;-68
2023/09/03 03:13:29;;;;;;;1.40;1.02;;;19.90;75.50;;;;;;5024505;28;20034;-68
2023/09/03 03:15:54;;;;;;;0.98;0.93;;;19.90;75.60;;;;;;5019238;28;20083;-67
2023/09/03 03:18:20;;;;;;;1.05;0.75;;;19.90;75.60;;;;;;5006256;28;20032;-71
2023/09/03 03:20:45;;;;;;;1.27;1.00;;;19.90;75.60;;;;;;5003001;28;20423;-71
2023/09/03 03:23:11;;;;;;;0.95;0.82;;;19.90;75.70;;;;;;5007278;28;20049;-71
2023/09/03 03:25:36;;;;;;;0.75;0.70;;;19.90;75.60;;;;;;5020302;28;20026;-71
2023/09/03 03:28:02;;;;;;;1.40;0.98;;;19.90;75.50;;;;;;5024376;28;20028;-71
2023/09/03 03:30:27;;;;;;;1.75;0.60;;;19.90;75.50;;;;;;5021359;28;20447;-71
2023/09/03 03:32:53;;;;;;;2.63;0.90;;;19.90;75.60;;;;;;5005094;28;20039;-69
2023/09/03 03:35:18;;;;;;;0.80;0.80;;;19.90;75.60;;;;;;5004864;28;20029;-71
2023/09/03 03:37:44;;;;;;;1.10;1.00;;;19.90;75.70;;;;;;5022859;28;20060;-71
2023/09/03 03:40:10;;;;;;;0.85;0.85;;;19.90;75.70;;;;;;5020654;28;20479;-68
2023/09/03 03:42:36;;;;;;;0.80;0.75;;;19.90;75.70;;;;;;5021673;28;20029;-68
2023/09/03 03:45:01;;;;;;;0.70;0.70;;;19.90;75.60;;;;;;5023364;28;20369;-71
2023/09/03 03:47:27;;;;;;;1.10;0.80;;;19.90;75.70;;;;;;5015883;28;20037;-71
2023/09/03 03:49:52;;;;;;;1.13;0.80;;;19.90;75.60;;;;;;5015268;28;20040;-69
2023/09/03 03:52:18;;;;;;;1.48;0.77;;;19.90;75.50;;;;;;5020201;28;20029;-71
2023/09/03 03:54:43;;;;;;;1.00;0.70;;;19.80;75.60;;;;;;5019422;28;20030;-68
2023/09/03 03:57:09;;;;;;;0.98;0.75;;;19.90;75.50;;;;;;5021123;28;20033;-71
2023/09/03 03:59:36;;;;;;;1.10;0.77;;;19.90;75.60;;;;;;5004720;28;20039;-71
2023/09/03 04:02:01;;;;;;;1.45;0.90;;;19.80;75.50;;;;;;5022689;28;20033;-71
2023/09/03 04:04:27;;;;;;;1.33;0.82;;;19.90;75.60;;;;;;5019476;28;20562;-69
2023/09/03 04:06:52;;;;;;;0.90;0.80;;;19.80;75.40;;;;;;5021132;28;20037;-72
2023/09/03 04:09:18;;;;;;;1.00;0.80;;;19.80;75.60;;;;;;5021175;28;20033;-71
2023/09/03 04:11:43;;;;;;;0.80;0.80;;;19.90;75.70;;;;;;5015009;28;20056;-71
2023/09/03 04:14:09;;;;;;;1.33;0.88;;;19.90;75.70;;;;;;5019945;28;20121;-71
2023/09/03 04:16:34;;;;;;;0.95;0.85;;;19.80;75.70;;;;;;5015159;28;20037;-72
2023/09/03 04:19:00;;;;;;;2.33;0.93;;;19.90;75.70;;;;;;5016233;28;20372;-72
2023/09/03 04:21:25;;;;;;;1.08;0.80;;;19.80;75.50;;;;;;5020654;28;20396;-73
2023/09/03 04:23:51;;;;;;;0.85;0.77;;;19.90;75.70;;;;;;5019925;28;20109;-71
2023/09/03 04:26:17;;;;;;;1.20;0.73;;;19.80;75.60;;;;;;5007794;28;20404;-71
2023/09/03 04:28:42;;;;;;;1.10;0.90;;;19.90;75.50;;;;;;5022197;28;20030;-71
2023/09/03 04:31:10;;;;;;;1.20;0.80;;;19.90;75.60;;;;;;5008141;28;20030;-71
2023/09/03 04:33:36;;;;;;;1.00;0.70;;;19.90;75.50;;;;;;5014173;28;20034;-72
2023/09/03 04:36:03;;;;;;;0.70;0.70;;;19.80;75.50;;;;;;5017908;28;20029;-72
2023/09/03 04:38:29;;;;;;;0.80;0.70;;;19.80;75.60;;;;;;5020849;28;20619;-68
2023/09/03 04:40:55;;;;;;;1.00;0.70;;;19.90;75.60;;;;;;5001473;28;20022;-71
2023/09/03 04:43:21;;;;;;;1.10;1.00;;;19.80;75.50;;;;;;5008495;28;20528;-68
2023/09/03 04:45:48;;;;;;;0.75;0.75;;;19.90;75.60;;;;;;5025128;28;20116;-71
2023/09/03 04:48:14;;;;;;;0.80;0.80;;;19.80;75.40;;;;;;5013568;28;20026;-68
2023/09/03 04:50:40;;;;;;;0.90;0.73;;;19.90;75.60;;;;;;5022254;28;20028;-72
2023/09/03 04:53:07;;;;;;;1.67;0.82;;;19.80;75.60;;;;;;5014443;28;20053;-70
2023/09/03 04:55:33;;;;;;;1.35;0.77;;;19.90;75.60;;;;;;5021840;28;20044;-71
2023/09/03 04:57:59;;;;;;;0.80;0.80;;;19.90;75.60;;;;;;5008036;28;20025;-73
2023/09/03 05:00:24;;;;;;;0.98;0.88;;;19.80;75.60;;;;;;5023148;28;20077;-71
2023/09/03 05:02:50;;;;;;;0.82;0.70;;;19.80;75.50;;;;;;5020086;28;20030;-71
2023/09/03 05:05:17;;;;;;;0.70;0.70;;;19.80;75.40;;;;;;5020592;28;20029;-71
2023/09/03 05:07:43;;;;;;;0.82;0.60;;;19.80;75.40;;;;;;5022569;28;20123;-72
2023/09/03 05:10:09;;;;;;;1.92;0.90;;;19.90;75.50;;;;;;5023932;28;20110;-71
2023/09/03 05:12:35;;;;;;;0.70;0.57;;;19.90;75.50;;;;;;5003415;28;20033;-68
2023/09/03 05:15:00;;;;;;;0.70;0.70;;;19.90;75.60;;;;;;5026239;28;20548;-70
2023/09/03 05:17:26;;;;;;;2.35;0.75;;;19.90;75.70;;;;;;5012571;28;20457;-68
2023/09/03 05:19:51;;;;;;;1.15;0.82;;;19.90;75.50;;;;;;5030235;28;20026;-71
2023/09/03 05:22:17;;;;;;;0.93;0.75;;;19.90;75.50;;;;;;5032670;28;20029;-72
2023/09/03 05:24:42;;;;;;;0.80;0.80;;;19.90;75.40;;;;;;5009251;28;20552;-71
2023/09/03 05:27:08;;;;;;;1.27;0.80;;;19.90;75.40;;;;;;5025410;28;20037;-72
2023/09/03 05:29:34;;;;;;;2.13;0.82;;;19.90;75.40;;;;;;5009232;28;20154;-71
2023/09/03 05:32:00;;;;;;;4.20;1.10;;;19.90;75.50;;;;;;5029756;28;20465;-69
2023/09/03 05:34:25;;;;;;;0.60;0.60;;;19.90;75.40;;;;;;5026735;28;20041;-72
2023/09/03 05:36:51;;;;;;;1.02;0.90;;;19.90;76.00;;;;;;5025651;28;20041;-72
2023/09/03 05:39:16;;;;;;;0.85;0.82;;;20.00;75.30;;;;;;5024450;28;20107;-71
2023/09/03 05:41:42;;;;;;;0.98;0.80;;;19.90;75.40;;;;;;5021013;28;20123;-71
2023/09/03 05:44:09;;;;;;;0.68;0.60;;;20.00;75.40;;;;;;5023763;28;20109;-72
2023/09/03 05:46:35;;;;;;;1.05;0.90;;;20.00;75.40;;;;;;5008493;28;20030;-71
2023/09/03 05:49:01;;;;;;;0.75;0.60;;;20.00;75.50;;;;;;5024283;28;20554;-72
2023/09/03 05:51:27;;;;;;;1.42;0.80;;;20.00;75.40;;;;;;5029263;28;20072;-68
2023/09/03 05:53:53;;;;;;;0.80;0.70;;;20.00;75.50;;;;;;5010452;28;20032;-72
2023/09/03 05:56:19;;;;;;;1.50;1.40;;;20.00;75.40;;;;;;5011039;28;20030;-72
2023/09/03 05:58:45;;;;;;;1.98;1.40;;;20.00;75.60;;;;;;5010011;28;20108;-74
2023/09/03 06:01:11;;;;;;;2.38;2.17;;;20.00;75.50;;;;;;5005840;28;20121;-72
2023/09/03 06:03:38;;;;;;;2.38;2.00;;;20.00;75.70;;;;;;5018947;28;20049;-69
2023/09/03 06:06:04;;;;;;;1.48;1.35;;;20.00;75.60;;;;;;5008682;28;20036;-72
2023/09/03 06:08:31;;;;;;;1.85;1.00;;;20.00;75.60;;;;;;5024631;28;20431;-72
2023/09/03 06:10:56;;;;;;;3.15;2.50;;;20.00;75.40;;;;;;5005678;28;20030;-72
2023/09/03 06:13:33;;;;;;;1.55;1.45;;;20.00;75.60;;;;;;5008262;28;20087;-72
2023/09/03 06:15:59;;;;;;;1.35;1.25;;;20.00;75.60;;;;;;5017146;28;20117;-72
2023/09/03 06:18:25;;;;;;;1.33;0.82;;;20.00;75.50;;;;;;5025936;28;20651;-71
2023/09/03 06:20:51;;;;;;;1.45;0.98;;;20.00;75.40;;;;;;5006611;28;20125;-71
2023/09/03 06:23:21;;;;;;;1.38;1.23;;;20.00;75.20;;;;;;5024485;28;20045;-71
2023/09/03 06:25:48;;;;;;;1.70;1.13;;;20.00;75.40;;;;;;5023249;28;20036;-72
2023/09/03 06:28:14;;;;;;;2.45;2.03;;;20.00;75.30;;;;;;5024943;28;20030;-70
2023/09/03 06:30:40;;;;;;;5.22;4.78;;;20.00;75.50;;;;;;5016371;28;20049;-70
2023/09/03 06:33:05;;;;;;;1.65;1.27;;;20.00;75.50;;;;;;5021462;28;22950;-71
2023/09/03 06:35:31;;;;;;;3.47;2.70;;;20.00;75.60;;;;;;5020185;28;20109;-72
2023/09/03 06:37:57;;;;;;;2.50;1.80;;;20.00;75.50;;;;;;5009676;28;20029;-72
2023/09/03 06:40:23;;;;;;;2.28;1.77;;;20.00;75.40;;;;;;5027727;28;20030;-72
2023/09/03 06:42:49;;;;;;;8.05;5.30;;;20.00;75.20;;;;;;5008833;28;20404;-72
2023/09/03 06:45:15;;;;;;;2.58;2.35;;;19.90;75.40;;;;;;5008406;28;20045;-69
2023/09/03 06:47:40;;;;;;;5.65;5.03;;;19.90;75.60;;;;;;5004927;28;20034;-71
2023/09/03 06:50:07;;;;;;;3.45;3.15;;;19.90;75.70;;;;;;5012985;28;20056;-69
2023/09/03 06:52:34;;;;;;;3.00;2.70;;;19.80;75.60;;;;;;5024295;28;20120;-71
2023/09/03 06:55:00;;;;;;;5.57;5.03;;;19.90;75.70;;;;;;5005705;28;20620;-71
2023/09/03 06:57:26;;;;;;;4.65;2.53;;;19.90;75.40;;;;;;5017388;28;20091;-69
2023/09/03 06:59:51;;;;;;;3.25;2.40;;;19.90;75.40;;;;;;5015663;28;20033;-70
2023/09/03 07:02:17;;;;;;;4.13;2.30;;;20.00;75.50;;;;;;5019235;28;20022;-70
2023/09/03 07:04:42;;;;;;;5.55;3.05;;;20.00;75.30;;;;;;5022789;28;20030;-68
2023/09/03 07:07:09;;;;;;;2.10;1.90;;;20.00;75.50;;;;;;5023231;28;20033;-68
2023/09/03 07:09:35;;;;;;;5.60;2.67;;;20.00;75.50;;;;;;5005248;28;20793;-67
2023/09/03 07:12:01;;;;;;;7.68;4.70;;;20.00;75.60;;;;;;5004036;28;20049;-70
2023/09/03 07:14:26;;;;;;;2.08;1.88;;;19.90;75.60;;;;;;5024680;28;20041;-67
2023/09/03 07:16:52;;;;;;;4.93;3.42;;;20.00;75.80;;;;;;5022687;28;20435;-67
2023/09/03 07:19:18;;;;;;;6.63;5.85;;;20.00;75.50;;;;;;5006358;28;20057;-66
2023/09/03 07:21:43;;;;;;;4.97;2.75;;;20.00;75.50;;;;;;5020658;28;20032;-67
2023/09/03 07:24:09;;;;;;;5.45;2.85;;;19.90;75.70;;;;;;5004357;28;20045;-70
2023/09/03 07:26:35;;;;;;;4.40;3.20;;;20.00;75.70;;;;;;5022942;28;20655;-69
2023/09/03 07:29:01;;;;;;;4.68;3.13;;;20.00;75.90;;;;;;5005625;28;20116;-68
2023/09/03 07:31:27;;;;;;;5.47;4.45;;;20.00;76.50;;;;;;5007021;28;20163;-67
2023/09/03 07:33:52;;;;;;;4.95;3.95;;;20.00;76.70;;;;;;4998093;28;20113;-67
2023/09/03 07:36:18;;;;;;;5.38;4.18;;;20.10;76.50;;;;;;5025169;28;20026;-68
2023/09/03 07:38:43;;;;;;;7.40;5.90;;;20.00;76.30;;;;;;5020269;28;20029;-68
2023/09/03 07:41:09;;;;;;;5.80;4.75;;;20.00;77.20;;;;;;5018116;28;20033;-68
2023/09/03 07:43:35;;;;;;;6.57;4.22;;;20.00;77.00;;;;;;5006685;28;20112;-70
2023/09/03 07:46:00;;;;;;;8.18;5.22;;;20.00;76.90;;;;;;5009242;28;20369;-70
2023/09/03 07:48:26;;;;;;;7.35;6.18;;;20.10;76.90;;;;;;5015134;28;20041;-69
2023/09/03 07:50:52;;;;;;;6.32;5.72;;;20.10;76.70;;;;;;5019534;28;20026;-69
2023/09/03 07:53:18;;;;;;;7.97;6.20;;;20.10;76.70;;;;;;5025084;28;20033;-70
2023/09/03 07:55:44;;;;;;;7.95;5.97;;;20.10;76.90;;;;;;5019343;28;20026;-70
2023/09/03 07:58:09;;;;;;;6.47;5.38;;;20.10;76.90;;;;;;5026778;28;20018;-69
2023/09/03 08:00:35;;;;;;;9.98;8.48;;;20.10;76.80;;;;;;5020094;28;20033;-69
2023/09/03 08:03:01;;;;;;;6.55;5.95;;;20.10;76.70;;;;;;5020699;28;20049;-71
2023/09/03 08:05:27;;;;;;;7.00;5.68;;;20.00;77.10;;;;;;5022851;28;20095;-70
2023/09/03 08:07:53;;;;;;;6.57;5.80;;;20.00;77.10;;;;;;5019658;28;20497;-69
2023/09/03 08:10:18;;;;;;;8.02;7.20;;;20.00;76.90;;;;;;5021864;28;20096;-70
2023/09/03 08:12:44;;;;;;;7.38;6.35;;;20.00;76.90;;;;;;5020535;28;20492;-69
2023/09/03 08:15:10;;;;;;;7.15;6.45;;;20.00;77.10;;;;;;5019937;28;20049;-69
2023/09/03 08:17:36;;;;;;;8.50;7.70;;;20.00;76.70;;;;;;5017422;28;20041;-70
2023/09/03 08:20:03;;;;;;;7.10;6.10;;;20.00;76.70;;;;;;5014150;28;20040;-71
2023/09/03 08:22:29;;;;;;;7.85;7.15;;;20.00;76.90;;;;;;5023840;28;20045;-69
2023/09/03 08:24:54;;;;;;;8.15;7.30;;;20.00;77.00;;;;;;5014670;28;20022;-71
2023/09/03 08:27:20;;;;;;;10.60;8.98;;;20.00;77.10;;;;;;5017546;28;20067;-69
2023/09/03 08:29:45;;;;;;;6.95;6.30;;;20.00;76.90;;;;;;5010643;28;20057;-70
2023/09/03 08:32:11;;;;;;;7.20;6.18;;;20.00;77.00;;;;;;5022399;28;20049;-67
2023/09/03 08:34:37;;;;;;;9.95;8.90;;;20.00;76.70;;;;;;5020635;28;20040;-69
2023/09/03 08:37:02;;;;;;;9.80;7.20;;;20.00;76.80;;;;;;5001461;28;20030;-69
2023/09/03 08:39:28;;;;;;;7.25;6.40;;;20.00;77.20;;;;;;5023118;28;20037;-69
2023/09/03 08:41:55;;;;;;;9.35;6.75;;;20.00;77.30;;;;;;5022504;28;20026;-68
2023/09/03 08:44:45;;;;;;;11.63;7.45;;;20.00;77.30;;;;;;5006205;28;20036;-72
2023/09/03 08:47:16;;;;;;;9.30;7.93;;;20.00;77.60;;;;;;5031255;28;20079;-69
2023/09/03 08:49:44;;;;;;;13.27;8.32;;;20.00;77.30;;;;;;5024194;28;20124;-69
2023/09/03 08:52:10;;;;;;;8.05;6.80;;;20.00;77.50;;;;;;5012217;28;20029;-69
2023/09/03 08:54:37;;;;;;;9.07;7.85;;;20.00;77.30;;;;;;5021294;28;20042;-68
2023/09/03 08:57:04;;;;;;;11.77;8.25;;;20.00;77.60;;;;;;5023026;28;20025;-68
2023/09/03 08:59:30;;;;;;;11.70;7.95;;;20.00;77.70;;;;;;5024314;28;20036;-70
2023/09/03 09:01:59;;;;;;;10.45;8.20;;;20.00;77.70;;;;;;5020719;28;20037;-71
2023/09/03 09:04:30;;;;;;;11.18;7.13;;;20.00;77.30;;;;;;5020511;28;20143;-69
2023/09/03 09:06:59;;;;;;;10.18;6.93;;;20.00;77.20;;;;;;5005599;28;20704;-70
2023/09/03 09:09:29;;;;;;;12.75;11.05;;;20.00;77.40;;;;;;5023608;28;20535;-70
2023/09/03 09:12:02;;;;;;;12.90;8.88;;;19.80;76.00;;;;;;5023110;28;20264;-71
2023/09/03 09:14:59;;;;;;;10.95;9.80;;;19.90;77.20;;;;;;5023675;28;20033;-69
2023/09/03 09:17:25;;;;;;;10.48;8.35;;;19.80;76.90;;;;;;5022248;28;20044;-70
2023/09/03 09:19:51;;;;;;;8.73;7.32;;;19.80;77.00;;;;;;5001424;28;20125;-70
2023/09/03 09:22:17;;;;;;;7.45;6.75;;;19.90;77.20;;;;;;5022199;28;20602;-69
2023/09/03 09:24:46;;;;;;;9.93;7.28;;;20.00;77.30;;;;;;5005529;28;20369;-70
2023/09/03 09:27:15;;;;;;;12.60;7.38;;;20.00;77.30;;;;;;5022607;28;20069;-70
2023/09/03 09:29:41;;;;;;;9.70;6.35;;;19.90;76.10;;;;;;5002844;28;20041;-69
2023/09/03 09:32:20;;;;;;;13.13;6.80;;;20.00;77.20;;;;;;5001328;28;20083;-70
2023/09/03 09:34:46;;;;;;;7.13;6.18;;;20.00;77.60;;;;;;5017743;28;20524;-69
2023/09/03 09:37:13;;;;;;;11.27;6.80;;;20.00;77.20;;;;;;5017801;28;20103;-70
2023/09/03 09:39:49;;;;;;;10.57;6.50;;;20.10;77.20;;;;;;5002803;28;20030;-69
2023/09/03 09:42:18;;;;;;;7.55;6.20;;;20.00;76.80;;;;;;5017338;28;20060;-70
2023/09/03 09:44:53;;;;;;;6.70;6.05;;;20.00;77.30;;;;;;5022315;28;20026;-70
2023/09/03 09:47:20;;;;;;;6.97;5.53;;;20.00;76.30;;;;;;5020056;28;20033;-70
2023/09/03 09:49:46;;;;;;;7.28;5.07;;;20.00;76.50;;;;;;5020238;28;20396;-70
2023/09/03 09:52:12;;;;;;;8.85;5.78;;;20.10;76.50;;;;;;5004038;28;20426;-69
2023/09/03 09:54:39;;;;;;;6.55;5.65;;;20.10;76.60;;;;;;5018994;28;20550;-70
2023/09/03 09:57:15;;;;;;;5.05;4.55;;;20.10;76.80;;;;;;5002096;28;20034;-70
2023/09/03 09:59:42;;;;;;;7.70;4.85;;;20.10;77.30;;;;;;5018786;28;20037;-70
2023/09/03 10:02:16;;;;;;;10.02;5.55;;;20.10;76.60;;;;;;5023478;28;20111;-70
2023/09/03 10:04:46;;;;;;;8.27;5.40;;;20.10;75.90;;;;;;5003443;28;20029;-71
2023/09/03 10:07:12;;;;;;;7.90;5.72;;;20.00;75.50;;;;;;5005571;28;20658;-70
2023/09/03 10:09:39;;;;;;;8.23;6.20;;;20.00;76.00;;;;;;5007118;28;20041;-70
2023/09/03 10:12:06;;;;;;;5.30;4.80;;;20.00;74.80;;;;;;5017213;28;20485;-69
2023/09/03 10:14:32;;;;;;;8.82;5.05;;;20.00;75.70;;;;;;5007143;28;20061;-70
2023/09/03 10:17:05;;;;;;;4.63;4.13;;;20.00;74.80;;;;;;5026194;28;20124;-70
2023/09/03 10:19:42;;;;;;;7.93;5.55;;;20.00;75.40;;;;;;5023763;28;20029;-70
2023/09/03 10:22:14;;;;;;;6.90;4.90;;;20.00;73.70;;;;;;5020509;28;20037;-70
2023/09/03 10:24:41;;;;;;;7.38;4.72;;;20.00;73.20;;;;;;5025546;28;20071;-70
2023/09/03 10:27:12;;;;;;;6.28;4.65;;;19.90;74.10;;;;;;5005344;28;20033;-70
2023/09/03 10:29:39;;;;;;;5.18;4.00;;;19.90;74.60;;;;;;5025777;28;20099;-70
2023/09/03 10:32:07;;;;;;;5.18;4.68;;;20.00;74.50;;;;;;5025395;28;20504;-69
2023/09/03 10:34:36;;;;;;;5.78;3.95;;;20.00;74.60;;;;;;5005928;28;20030;-70
2023/09/03 10:37:01;;;;;;;3.50;3.10;;;20.00;74.60;;;;;;5026561;28;20029;-70
2023/09/03 10:39:27;;;;;;;8.20;5.10;;;20.00;74.70;;;;;;5026309;28;20040;-69
2023/09/03 10:42:14;;;;;;;4.35;3.53;;;20.00;72.80;;;;;;5011904;28;20037;-70
2023/09/03 10:44:49;;;;;;;3.80;3.42;;;19.90;74.70;;;;;;5011651;28;20092;-70
2023/09/03 10:47:17;;;;;;;5.00;4.27;;;20.00;74.80;;;;;;5007721;28;20045;-71
2023/09/03 10:49:44;;;;;;;5.63;4.97;;;20.00;73.40;;;;;;5024473;28;20764;-70
2023/09/03 10:52:28;;;;;;;4.85;3.97;;;19.90;73.50;;;;;;5022773;28;20079;-70
2023/09/03 10:55:14;;;;;;;4.38;3.33;;;20.00;74.30;;;;;;5021439;28;20511;-70
2023/09/03 10:57:40;;;;;;;4.43;3.50;;;20.00;73.60;;;;;;5003679;28;20037;-70
2023/09/03 11:00:17;;;;;;;4.47;3.88;;;20.00;74.40;;;;;;5024297;28;20040;-70
2023/09/03 11:02:44;;;;;;;7.85;4.53;;;20.00;73.90;;;;;;5021067;28;20109;-69
2023/09/03 11:05:25;;;;;;;6.68;4.43;;;20.00;73.80;;;;;;5019657;28;20029;-70
2023/09/03 11:08:29;;;;;;;4.40;3.60;;;20.00;72.60;;;;;;5003431;28;20147;-70
2023/09/03 11:10:56;;;;;;;3.42;3.13;;;19.90;73.90;;;;;;5010508;28;20034;-70
2023/09/03 11:13:22;;;;;;;5.90;3.50;;;20.00;74.00;;;;;;5007676;28;20598;-70
2023/09/03 11:15:55;;;;;;;5.93;3.75;;;20.00;74.60;;;;;;5025190;28;20404;-70
2023/09/03 11:18:21;;;;;;;4.80;3.47;;;20.00;73.90;;;;;;5019193;28;20034;-70
2023/09/03 11:20:49;;;;;;;3.67;3.20;;;20.00;72.80;;;;;;5023996;28;20038;-69
2023/09/03 11:23:14;;;;;;;3.92;2.97;;;20.00;73.70;;;;;;5019306;28;20030;-70
2023/09/03 11:25:43;;;;;;;4.68;3.30;;;20.00;74.30;;;;;;5021827;28;20420;-70
2023/09/03 11:28:13;;;;;;;3.63;2.97;;;20.10;74.20;;;;;;5005948;28;20022;-72
2023/09/03 11:30:40;;;;;;;3.70;2.90;;;20.10;74.20;;;;;;5023868;28;20275;-71
2023/09/03 11:33:08;;;;;;;3.88;3.15;;;20.10;74.50;;;;;;5001376;28;20021;-72
2023/09/03 11:35:44;;;;;;;4.15;3.65;;;20.10;74.00;;;;;;5017889;28;20053;-70
2023/09/03 11:38:11;;;;;;;6.35;4.43;;;20.00;72.90;;;;;;5004753;28;20029;-71
2023/09/03 11:40:38;;;;;;;6.82;4.97;;;20.00;72.80;;;;;;5022258;28;20065;-71
2023/09/03 11:43:08;;;;;;;6.82;5.78;;;20.00;73.90;;;;;;5002975;28;20037;-70
2023/09/03 11:45:34;;;;;;;3.67;3.30;;;20.00;72.60;;;;;;5001942;28;20116;-68
2023/09/03 11:47:59;;;;;;;5.55;3.58;;;20.00;74.10;;;;;;5014232;28;20636;-69
2023/09/03 11:50:25;;;;;;;6.90;4.35;;;20.00;73.90;;;;;;5002543;28;20029;-70
2023/09/03 11:53:00;;;;;;;6.90;3.67;;;20.00;74.10;;;;;;5018933;28;20108;-70
2023/09/03 11:55:29;;;;;;;6.07;4.00;;;20.10;75.10;;;;;;5023413;28;20068;-69
2023/09/03 11:58:00;;;;;;;4.90;4.35;;;20.10;75.20;;;;;;5007927;28;20608;-71
2023/09/03 12:00:27;;;;;;;4.95;4.30;;;20.10;75.20;;;;;;5007405;28;20026;-70
2023/09/03 12:02:54;;;;;;;6.45;5.72;;;20.20;75.10;;;;;;5006745;28;20029;-70
2023/09/03 12:05:19;;;;;;;7.20;6.10;;;20.20;73.10;;;;;;5023657;28;20250;-70
2023/09/03 12:07:46;;;;;;;9.48;5.93;;;20.20;73.10;;;;;;5024725;28;20091;-70
2023/09/03 12:10:18;;;;;;;8.52;5.68;;;20.10;73.30;;;;;;5006398;28;20033;-70
2023/09/03 12:12:44;;;;;;;10.80;5.20;;;20.10;74.00;;;;;;5005374;28;20140;-70
2023/09/03 12:15:36;;;;;;;9.25;6.18;;;20.20;74.80;;;;;;5019753;28;20125;-68
2023/09/03 12:18:07;;;;;;;9.52;6.45;;;20.20;74.00;;;;;;5018348;28;20041;-71
2023/09/03 12:20:34;;;;;;;8.15;6.07;;;20.20;75.00;;;;;;5017666;28;20037;-71
2023/09/03 12:23:29;;;;;;;12.25;6.35;;;20.20;76.10;;;;;;5021551;28;20072;-72
2023/09/03 12:25:54;;;;;;;72.13;33.85;;;20.30;75.90;;;;;;5003672;28;20420;-71
2023/09/03 12:28:36;;;;;;;95.80;43.38;;;20.30;76.20;;;;;;5017427;28;20029;-70
2023/09/03 12:31:04;;;;;;;121.70;51.78;;;20.30;76.30;;;;;;5021296;28;20488;-68
2023/09/03 12:33:32;;;;;;;190.10;79.85;;;20.40;76.20;;;;;;5013558;28;20076;-70
2023/09/03 12:36:13;;;;;;;157.52;66.47;;;20.40;76.90;;;;;;5015193;28;20037;-69
2023/09/03 12:39:04;;;;;;;87.70;40.83;;;20.40;77.80;;;;;;5019337;28;20337;-69
2023/09/03 12:41:34;;;;;;;57.20;24.83;;;20.40;77.60;;;;;;5009838;28;20029;-69
2023/09/03 12:44:08;;;;;;;35.03;16.85;;;20.40;76.20;;;;;;4997598;28;20261;-69
2023/09/03 12:46:34;;;;;;;35.95;16.17;;;20.50;73.90;;;;;;5015437;28;20217;-69
2023/09/03 12:49:01;;;;;;;18.52;11.98;;;20.40;75.60;;;;;;5016030;28;20030;-69
2023/09/03 12:51:27;;;;;;;26.52;12.43;;;20.40;72.90;;;;;;5018664;28;20512;-68